Terminal Aerodrome Forecast
Issued by NWS

Home | Current Version | Previous Version | Text Only | Print | Product List | Glossary On
Versions: 1 2 3 4 5 6 7 8 9 10 11 12 13 14 15 16 17 18 19 20 21 22
000
FTUS42 KTBW 012339
TAFPIE
TAF
KPIE 012339Z 0200/0224 22008KT P6SM VCSH SCT025 BKN090 OVC250
      TEMPO 0200/0202 23015G25KT 3SM SHRA BKN025
     FM021200 20010KT P6SM VCTS SCT025CB OVC250
     FM021500 23013G23KT P6SM VCTS SCT025CB OVC100
     FM022200 24013KT P6SM VCTS FEW025CB BKN100 OVC250=

USA.gov is the U.S. government's official web portal to all federal, state and local government web resources and services.